Aviation Digital Data Service (ADDS)

Output produced by METARs form (1513 UTC 29 May 2017)
found at http://www.aviationweather.gov/adds/metars/
 
KIPT 291454Z VRB06KT 10SM OVC010 16/14 A2987 RMK AO2 RAE11 SLP112 P0000 60000 T01610139 50017
KIPT 291354Z 00000KT 9SM -RA OVC010 16/14 A2987 RMK AO2 RAB22E31B52 SLP113 P0000 T01560139
KIPT 291254Z 07007KT 10SM OVC011 16/13 A2985 RMK AO2 RAE42 SLP105 P0000 T01560133
KIPT 291154Z 08012KT 10SM -RA OVC010 15/14 A2981 RMK AO2 LTG DSNT SE RAB04E22B43 SLP095 P0001 60031 70112 T01500144 10167 20150 50009
KIPT 291054Z 07008KT 10SM OVC010 15/15 A2982 RMK AO2 RAE47 SLP096 P0002 T01500150
KIPT 290954Z AUTO 07013KT 10SM -RA OVC010 15/14 A2979 RMK AO2 WSHFT 0845 SLP086 P0008 T01500144
KIPT 290859Z AUTO 08012KT 5SM +RA BR BKN012 BKN029 OVC085 15/14 A2979 RMK AO2 WSHFT 0845 P0001 T01500144
KIPT 290854Z AUTO 09011KT 5SM RA BR FEW008 BKN015 OVC033 15/14 A2979 RMK AO2 SLP084 P0015 60020 T01500144 50002
KIPT 290837Z AUTO 30005KT 5SM RA BR FEW008 BKN013 OVC025 16/14 A2981 RMK AO2 PRESRR P0005 T01560144
KIPT 290754Z AUTO 11005KT 7SM -RA SCT010 BKN016 OVC029 16/15 A2979 RMK AO2 SLP085 P0004 T01610150
KIPT 290657Z AUTO 13009KT 5SM -RA BR FEW007 BKN026 OVC035 16/15 A2979 RMK AO2 P0000 T01610150
KIPT 290654Z AUTO 13010G16KT 5SM -RA BR SCT010 BKN014 OVC026 16/15 A2978 RMK AO2 RAB0555 SLP083 P0001 T01610150
KIPT 290652Z AUTO 13010KT 5SM -RA BR BKN010 BKN014 OVC026 16/15 A2978 RMK AO2 RAB0555 CIG 006V011 P0001
KIPT 290554Z AUTO 08006KT 4SM BR BKN006 OVC017 17/16 A2980 RMK AO2 RAE50 CIG 006V010 SLP088 P0003 60073 T01670161 10194 20167 58005
KIPT 290540Z AUTO 08007KT 4SM -RA BR BKN007 BKN012 OVC022 17/16 A2980 RMK AO2 CIG 006V011 P0002 T01670161
KIPT 290519Z AUTO 11010KT 4SM -RA BR FEW007 BKN018 OVC024 17/16 A2980 RMK AO2 P0002 T01720161
KIPT 290509Z AUTO 11007KT 3SM -RA BR SCT010 BKN018 OVC025 17/17 A2980 RMK AO2 P0001 T01720167
KIPT 290507Z AUTO 11007KT 2 1/2SM -RA BR SCT008 BKN014 OVC024 17/17 A2980 RMK AO2 P0001 T01720167
KIPT 290500Z AUTO 11007KT 2 1/2SM -RA BR SCT008 BKN019 OVC024 18/17 A2980 RMK AO2 P0000 T01780167
KIPT 290454Z AUTO 11008KT 2 1/2SM -RA BR BKN010 BKN017 OVC023 18/17 A2980 RMK AO2 RAE19B38 SLP089 P0001 T01780167 402390144
KIPT 290442Z AUTO 14006KT 5SM -RA BR OVC012 18/17 A2981 RMK AO2 RAE19B38 P0000 T01830167
KIPT 290408Z AUTO VRB06KT 10SM -RA BKN015 OVC021 19/17 A2981 RMK AO2 P0000 T01940167
KIPT 290354Z AUTO VRB03KT 10SM -RA BKN013 OVC019 18/17 A2981 RMK AO2 RAB53 SLP093 P0000 T01830167
KIPT 290351Z AUTO 13007KT 10SM OVC015 18/17 A2981 RMK AO2
KIPT 290305Z AUTO 00000KT 10SM SCT010 BKN013 OVC024 18/17 A2983 RMK AO2 T01830172
KIPT 290254Z AUTO 05008KT 10SM SCT015 OVC024 18/17 A2983 RMK AO2 RAB19E28B39E54 SLP099 P0000 60069 T01830167 55003
KIPT 290232Z AUTO 04007KT 10SM BKN023 OVC050 18/17 A2983 RMK AO2 RAB19E28 P0000 T01830167
KIPT 290154Z 11009G15KT 070V140 8SM SCT012 BKN042 OVC060 19/17 A2983 RMK AO2 PK WND 15026/0118 RAE27 SLP098 P0024 T01890167
KIPT 290119Z 14019G26KT 7SM -RA SCT012 BKN042 OVC060 19/17 A2981 RMK AO2 PK WND 15026/0118 P0022 T01890167
KIPT 290056Z 12010KT 2 1/2SM +RA BR FEW008 BKN038 OVC050 18/18 A2983 RMK AO2 P0003 T01830178
KIPT 290054Z 12009KT 2 1/2SM +RA BR SCT010 BKN028 OVC060 18/18 A2983 RMK AO2 SLP098 P0045 T01830178
KIPT 290020Z VRB04KT 2SM +RA BR BKN013 BKN023 OVC055 18/18 A2983 RMK AO2 P0010 T01830178
KIPT 290002Z 11004KT 3SM RA BR BKN013 BKN023 OVC055 19/17 A2983 RMK AO2 P0001 T01890172
KIPT 282356Z 11004KT 2 1/2SM RA BR SCT013 BKN023 OVC055 19/17 A2984 RMK AO2 P0000 T01890172
KIPT 282354Z VRB04KT 6SM RA BR BKN013 BKN023 OVC050 19/17 A2984 RMK AO2 RAB2257 TSB35E50 SLP103 P0002 60008 T01890172 10233 20189 53005
KIPT 282347Z VRB03KT 6SM -TSRA BR BKN013 BKN020 OVC038 19/17 A2984 RMK AO2 RAB2257 TSB35 P0000 T01890172
KIPT 282336Z 09006KT 6SM -TSRA BR SCT013 BKN025 OVC033 19/17 A2984 RMK AO2 RAB2257 TSB35 P0000 T01940172
KIPT 282326Z 10005KT 6SM VCTS -RA BR SCT019 BKN036 OVC055 19/17 A2984 RMK AO2 RAB2257 P0000 T01940172
KIPT 282254Z 13006KT 10SM SCT021 OVC034 20/17 A2983 RMK AO2 RAE01 SLP100 P0000 T02000167
KIPT 282154Z VRB04KT 10SM -RA SCT028 OVC045 21/17 A2982 RMK AO2 RAE10B33 SLP097 P0006 T02060167
KIPT 282054Z 06005KT 7SM -RA OVC043 22/17 A2982 RMK AO2 RAB17E31B49 SLP097 P0000 60000 T02170167 56009
KIPT 281954Z 00000KT 10SM BKN040 OVC048 22/16 A2983 RMK AO2 SLP098 T02220156
KIPT 281854Z VRB03KT 10SM SCT036 OVC050 23/16 A2983 RMK AO2 SLP100 T02280156
KIPT 281754Z VRB03KT 10SM BKN060 23/16 A2985 RMK AO2 SLP106 T02280156 10239 20167 58001
KIPT 281654Z VRB03G15KT 10SM BKN060 23/14 A2986 RMK AO2 SLP110 T02280144
KIPT 281554Z 00000KT 10SM FEW060 23/15 A2987 RMK AO2 SLP113 T02280150
KIPT 281454Z 16012KT 10SM FEW060 22/15 A2985 RMK AO2 SLP106 T02220150 58011
KIPT 281354Z 10005KT 10SM CLR 21/15 A2987 RMK AO2 SLP111 T02110150
KIPT 281254Z 07005KT 10SM CLR 19/15 A2988 RMK AO2 SLP114 T01940150
KIPT 281154Z 00000KT 10SM CLR 17/14 A2989 RMK AO2 SLP118 T01670139 10167 20144 51003
KIPT 281054Z 10003KT 10SM CLR 16/14 A2989 RMK AO2 SLP118 T01560139
KIPT 280954Z AUTO 11003KT 10SM SCT065 14/13 A2988 RMK AO2 SLP116 T01440133
KIPT 280854Z AUTO 00000KT 10SM OVC060 16/14 A2988 RMK AO2 SLP115 T01560139 55004
KIPT 280754Z AUTO 00000KT 10SM OVC060 16/13 A2986 RMK AO2 SLP110 T01560133
KIPT 280654Z AUTO 00000KT 10SM BKN048 16/14 A2987 RMK AO2 SLP113 T01610139
KIPT 280554Z AUTO 00000KT 10SM BKN048 OVC060 17/14 A2989 RMK AO2 SLP119 T01670139 10211 20156 50001
KIPT 280454Z AUTO 00000KT 10SM FEW049 OVC065 17/14 A2990 RMK AO2 SLP121 T01670139 402330100
KIPT 280354Z AUTO 00000KT 10SM BKN048 16/14 A2988 RMK AO2 SLP118 T01610139